sensor_id;sensor_type;location;lat;lon;timestamp;P1;durP1;ratioP1;P2;durP2;ratioP2
75689;SDS011;64303;53.118;9.044;2023-05-02T00:01:55;21.95;;;17.70;;
75689;SDS011;64303;53.118;9.044;2023-05-02T00:04:22;23.52;;;17.05;;
75689;SDS011;64303;53.118;9.044;2023-05-02T00:06:50;23.17;;;16.10;;
75689;SDS011;64303;53.118;9.044;2023-05-02T00:09:16;22.45;;;17.88;;
75689;SDS011;64303;53.118;9.044;2023-05-02T00:11:43;24.98;;;18.02;;
75689;SDS011;64303;53.118;9.044;2023-05-02T00:14:10;25.35;;;17.75;;
75689;SDS011;64303;53.118;9.044;2023-05-02T00:16:36;23.20;;;15.70;;
75689;SDS011;64303;53.118;9.044;2023-05-02T00:19:04;23.00;;;17.83;;
75689;SDS011;64303;53.118;9.044;2023-05-02T00:21:31;25.17;;;17.65;;
75689;SDS011;64303;53.118;9.044;2023-05-02T00:23:58;24.92;;;17.83;;
75689;SDS011;64303;53.118;9.044;2023-05-02T00:26:25;20.17;;;13.32;;
75689;SDS011;64303;53.118;9.044;2023-05-02T00:28:53;27.13;;;19.70;;
75689;SDS011;64303;53.118;9.044;2023-05-02T00:31:19;27.48;;;18.85;;
75689;SDS011;64303;53.118;9.044;2023-05-02T00:33:46;24.85;;;18.90;;
75689;SDS011;64303;53.118;9.044;2023-05-02T00:36:15;25.70;;;15.45;;
75689;SDS011;64303;53.118;9.044;2023-05-02T00:38:43;25.80;;;17.92;;
75689;SDS011;64303;53.118;9.044;2023-05-02T00:41:10;28.15;;;20.80;;
75689;SDS011;64303;53.118;9.044;2023-05-02T00:43:36;28.65;;;20.98;;
75689;SDS011;64303;53.118;9.044;2023-05-02T00:46:05;25.27;;;18.90;;
75689;SDS011;64303;53.118;9.044;2023-05-02T00:48:32;25.52;;;17.73;;
75689;SDS011;64303;53.118;9.044;2023-05-02T00:51:01;26.10;;;18.05;;
75689;SDS011;64303;53.118;9.044;2023-05-02T00:53:30;25.85;;;19.02;;
75689;SDS011;64303;53.118;9.044;2023-05-02T00:55:57;24.10;;;14.30;;
75689;SDS011;64303;53.118;9.044;2023-05-02T00:58:24;26.40;;;19.42;;
75689;SDS011;64303;53.118;9.044;2023-05-02T01:00:58;24.08;;;15.93;;
75689;SDS011;64303;53.118;9.044;2023-05-02T01:03:33;29.08;;;19.58;;
75689;SDS011;64303;53.118;9.044;2023-05-02T01:06:07;24.00;;;16.15;;
75689;SDS011;64303;53.118;9.044;2023-05-02T01:08:46;29.67;;;20.15;;
75689;SDS011;64303;53.118;9.044;2023-05-02T01:11:21;25.60;;;18.08;;
75689;SDS011;64303;53.118;9.044;2023-05-02T01:13:53;27.58;;;17.38;;
75689;SDS011;64303;53.118;9.044;2023-05-02T01:18:48;26.70;;;20.70;;
75689;SDS011;64303;53.118;9.044;2023-05-02T01:21:15;31.65;;;20.23;;
75689;SDS011;64303;53.118;9.044;2023-05-02T01:23:48;25.25;;;18.98;;
75689;SDS011;64303;53.118;9.044;2023-05-02T01:26:22;26.88;;;19.05;;
75689;SDS011;64303;53.118;9.044;2023-05-02T01:28:58;28.20;;;19.52;;
75689;SDS011;64303;53.118;9.044;2023-05-02T01:31:28;26.25;;;18.27;;
75689;SDS011;64303;53.118;9.044;2023-05-02T01:33:56;28.25;;;18.85;;
75689;SDS011;64303;53.118;9.044;2023-05-02T01:36:24;25.33;;;17.17;;
75689;SDS011;64303;53.118;9.044;2023-05-02T01:38:54;27.73;;;19.77;;
75689;SDS011;64303;53.118;9.044;2023-05-02T01:41:22;25.02;;;16.00;;
75689;SDS011;64303;53.118;9.044;2023-05-02T01:43:51;24.02;;;15.27;;
75689;SDS011;64303;53.118;9.044;2023-05-02T01:46:20;24.80;;;17.58;;
75689;SDS011;64303;53.118;9.044;2023-05-02T01:48:47;20.33;;;14.73;;
75689;SDS011;64303;53.118;9.044;2023-05-02T01:51:16;21.40;;;14.57;;
75689;SDS011;64303;53.118;9.044;2023-05-02T01:53:44;18.35;;;13.05;;
75689;SDS011;64303;53.118;9.044;2023-05-02T01:56:11;19.52;;;13.00;;
75689;SDS011;64303;53.118;9.044;2023-05-02T01:58:39;20.83;;;14.07;;
75689;SDS011;64303;53.118;9.044;2023-05-02T02:01:06;15.32;;;12.02;;
75689;SDS011;64303;53.118;9.044;2023-05-02T02:03:36;19.90;;;13.10;;
75689;SDS011;64303;53.118;9.044;2023-05-02T02:06:03;17.95;;;13.10;;
75689;SDS011;64303;53.118;9.044;2023-05-02T02:08:30;17.15;;;14.90;;
75689;SDS011;64303;53.118;9.044;2023-05-02T02:10:58;16.42;;;12.18;;
75689;SDS011;64303;53.118;9.044;2023-05-02T02:13:26;15.93;;;9.43;;
75689;SDS011;64303;53.118;9.044;2023-05-02T02:15:58;13.52;;;10.35;;
75689;SDS011;64303;53.118;9.044;2023-05-02T02:18:26;11.35;;;7.80;;
75689;SDS011;64303;53.118;9.044;2023-05-02T02:20:56;9.63;;;8.20;;
75689;SDS011;64303;53.118;9.044;2023-05-02T02:23:25;8.25;;;7.32;;
75689;SDS011;64303;53.118;9.044;2023-05-02T02:25:53;7.68;;;7.00;;
75689;SDS011;64303;53.118;9.044;2023-05-02T02:28:21;9.10;;;7.95;;
75689;SDS011;64303;53.118;9.044;2023-05-02T02:30:48;9.15;;;8.30;;
75689;SDS011;64303;53.118;9.044;2023-05-02T02:33:14;9.63;;;8.90;;
75689;SDS011;64303;53.118;9.044;2023-05-02T02:35:42;7.70;;;7.00;;
75689;SDS011;64303;53.118;9.044;2023-05-02T02:38:13;8.25;;;7.55;;
75689;SDS011;64303;53.118;9.044;2023-05-02T02:40:43;7.15;;;6.57;;
75689;SDS011;64303;53.118;9.044;2023-05-02T02:43:12;6.72;;;6.13;;
75689;SDS011;64303;53.118;9.044;2023-05-02T02:45:47;7.25;;;6.75;;
75689;SDS011;64303;53.118;9.044;2023-05-02T02:48:21;6.15;;;5.70;;
75689;SDS011;64303;53.118;9.044;2023-05-02T02:53:26;7.15;;;6.45;;
75689;SDS011;64303;53.118;9.044;2023-05-02T02:56:01;7.28;;;6.78;;
75689;SDS011;64303;53.118;9.044;2023-05-02T02:58:35;4.95;;;4.63;;
75689;SDS011;64303;53.118;9.044;2023-05-02T03:03:32;6.80;;;6.30;;
75689;SDS011;64303;53.118;9.044;2023-05-02T03:05:59;6.15;;;4.03;;
75689;SDS011;64303;53.118;9.044;2023-05-02T03:08:28;5.25;;;4.75;;
75689;SDS011;64303;53.118;9.044;2023-05-02T03:11:04;4.82;;;4.22;;
75689;SDS011;64303;53.118;9.044;2023-05-02T03:13:31;6.65;;;6.05;;
75689;SDS011;64303;53.118;9.044;2023-05-02T03:18:55;6.88;;;6.30;;
75689;SDS011;64303;53.118;9.044;2023-05-02T03:21:22;9.18;;;8.35;;
75689;SDS011;64303;53.118;9.044;2023-05-02T03:23:50;8.70;;;7.80;;
75689;SDS011;64303;53.118;9.044;2023-05-02T03:26:17;10.02;;;7.45;;
75689;SDS011;64303;53.118;9.044;2023-05-02T03:28:45;11.60;;;8.32;;
75689;SDS011;64303;53.118;9.044;2023-05-02T03:31:16;8.38;;;7.78;;
75689;SDS011;64303;53.118;9.044;2023-05-02T03:33:42;11.35;;;8.75;;
75689;SDS011;64303;53.118;9.044;2023-05-02T03:36:09;10.38;;;9.48;;
75689;SDS011;64303;53.118;9.044;2023-05-02T03:38:37;10.10;;;5.40;;
75689;SDS011;64303;53.118;9.044;2023-05-02T03:41:08;8.85;;;7.50;;
75689;SDS011;64303;53.118;9.044;2023-05-02T03:43:35;12.52;;;9.27;;
75689;SDS011;64303;53.118;9.044;2023-05-02T03:46:05;11.15;;;8.43;;
75689;SDS011;64303;53.118;9.044;2023-05-02T03:48:36;7.78;;;5.18;;
75689;SDS011;64303;53.118;9.044;2023-05-02T03:51:04;11.32;;;7.95;;
75689;SDS011;64303;53.118;9.044;2023-05-02T03:53:37;10.75;;;8.68;;
75689;SDS011;64303;53.118;9.044;2023-05-02T03:56:04;9.98;;;7.80;;
75689;SDS011;64303;53.118;9.044;2023-05-02T03:58:42;12.82;;;6.45;;
75689;SDS011;64303;53.118;9.044;2023-05-02T04:01:13;18.58;;;6.43;;
75689;SDS011;64303;53.118;9.044;2023-05-02T04:03:41;7.88;;;6.35;;
75689;SDS011;64303;53.118;9.044;2023-05-02T04:08:37;15.40;;;8.05;;
75689;SDS011;64303;53.118;9.044;2023-05-02T04:11:04;17.40;;;8.02;;
75689;SDS011;64303;53.118;9.044;2023-05-02T04:13:31;8.40;;;5.88;;
75689;SDS011;64303;53.118;9.044;2023-05-02T04:15:59;11.98;;;9.23;;
75689;SDS011;64303;53.118;9.044;2023-05-02T04:18:30;6.63;;;4.53;;
75689;SDS011;64303;53.118;9.044;2023-05-02T04:20:58;16.23;;;6.88;;
75689;SDS011;64303;53.118;9.044;2023-05-02T04:23:25;14.75;;;8.93;;
75689;SDS011;64303;53.118;9.044;2023-05-02T04:25:57;12.75;;;7.65;;
75689;SDS011;64303;53.118;9.044;2023-05-02T04:28:32;13.57;;;7.45;;
75689;SDS011;64303;53.118;9.044;2023-05-02T04:31:02;14.43;;;8.38;;
75689;SDS011;64303;53.118;9.044;2023-05-02T04:33:30;11.80;;;8.07;;
75689;SDS011;64303;53.118;9.044;2023-05-02T04:35:57;11.38;;;8.05;;
75689;SDS011;64303;53.118;9.044;2023-05-02T04:38:25;8.50;;;6.32;;
75689;SDS011;64303;53.118;9.044;2023-05-02T04:40:52;7.93;;;6.97;;
75689;SDS011;64303;53.118;9.044;2023-05-02T04:43:26;7.55;;;6.85;;
75689;SDS011;64303;53.118;9.044;2023-05-02T04:45:58;16.52;;;7.78;;
75689;SDS011;64303;53.118;9.044;2023-05-02T04:48:30;10.82;;;8.15;;
75689;SDS011;64303;53.118;9.044;2023-05-02T04:50:58;11.77;;;7.32;;
75689;SDS011;64303;53.118;9.044;2023-05-02T04:53:25;9.07;;;7.35;;
75689;SDS011;64303;53.118;9.044;2023-05-02T04:55:52;16.92;;;10.25;;
75689;SDS011;64303;53.118;9.044;2023-05-02T04:58:19;9.38;;;7.78;;
75689;SDS011;64303;53.118;9.044;2023-05-02T05:00:52;10.20;;;9.32;;
75689;SDS011;64303;53.118;9.044;2023-05-02T05:03:19;10.27;;;7.57;;
75689;SDS011;64303;53.118;9.044;2023-05-02T05:05:48;13.05;;;7.22;;
75689;SDS011;64303;53.118;9.044;2023-05-02T05:08:16;8.65;;;7.68;;
75689;SDS011;64303;53.118;9.044;2023-05-02T05:10:43;16.33;;;7.65;;
75689;SDS011;64303;53.118;9.044;2023-05-02T05:13:10;8.52;;;7.70;;
75689;SDS011;64303;53.118;9.044;2023-05-02T05:15:39;12.38;;;11.45;;
75689;SDS011;64303;53.118;9.044;2023-05-02T05:18:06;12.55;;;8.18;;
75689;SDS011;64303;53.118;9.044;2023-05-02T05:20:32;7.80;;;6.55;;
75689;SDS011;64303;53.118;9.044;2023-05-02T05:23:02;10.48;;;5.65;;
75689;SDS011;64303;53.118;9.044;2023-05-02T05:27:58;7.75;;;7.05;;
75689;SDS011;64303;53.118;9.044;2023-05-02T05:30:25;14.35;;;9.20;;
75689;SDS011;64303;53.118;9.044;2023-05-02T05:32:52;9.95;;;8.02;;
75689;SDS011;64303;53.118;9.044;2023-05-02T05:35:22;8.15;;;7.45;;
75689;SDS011;64303;53.118;9.044;2023-05-02T05:37:49;10.20;;;9.18;;
75689;SDS011;64303;53.118;9.044;2023-05-02T05:40:18;15.02;;;8.10;;
75689;SDS011;64303;53.118;9.044;2023-05-02T05:42:51;8.85;;;8.15;;
75689;SDS011;64303;53.118;9.044;2023-05-02T05:45:26;8.80;;;8.05;;
75689;SDS011;64303;53.118;9.044;2023-05-02T05:47:53;9.13;;;8.43;;
75689;SDS011;64303;53.118;9.044;2023-05-02T05:50:20;11.90;;;6.47;;
75689;SDS011;64303;53.118;9.044;2023-05-02T05:52:47;9.32;;;8.43;;
75689;SDS011;64303;53.118;9.044;2023-05-02T05:55:14;9.23;;;8.50;;
75689;SDS011;64303;53.118;9.044;2023-05-02T05:57:42;8.10;;;6.18;;
75689;SDS011;64303;53.118;9.044;2023-05-02T06:00:10;7.68;;;6.93;;
75689;SDS011;64303;53.118;9.044;2023-05-02T06:02:47;9.00;;;8.18;;
75689;SDS011;64303;53.118;9.044;2023-05-02T06:05:23;7.93;;;7.32;;
75689;SDS011;64303;53.118;9.044;2023-05-02T06:07:50;13.18;;;7.72;;
75689;SDS011;64303;53.118;9.044;2023-05-02T06:10:17;8.35;;;7.50;;
75689;SDS011;64303;53.118;9.044;2023-05-02T06:12:44;10.18;;;8.20;;
75689;SDS011;64303;53.118;9.044;2023-05-02T06:15:12;11.10;;;6.82;;
75689;SDS011;64303;53.118;9.044;2023-05-02T06:17:39;8.25;;;7.38;;
75689;SDS011;64303;53.118;9.044;2023-05-02T06:20:07;8.70;;;7.25;;
75689;SDS011;64303;53.118;9.044;2023-05-02T06:22:34;9.85;;;8.90;;
75689;SDS011;64303;53.118;9.044;2023-05-02T06:25:01;7.82;;;3.95;;
75689;SDS011;64303;53.118;9.044;2023-05-02T06:27:29;10.40;;;4.32;;
75689;SDS011;64303;53.118;9.044;2023-05-02T06:29:57;13.00;;;6.82;;
75689;SDS011;64303;53.118;9.044;2023-05-02T06:32:24;8.13;;;7.43;;
75689;SDS011;64303;53.118;9.044;2023-05-02T06:34:51;12.65;;;6.10;;
75689;SDS011;64303;53.118;9.044;2023-05-02T06:37:18;9.10;;;7.63;;
75689;SDS011;64303;53.118;9.044;2023-05-02T06:39:45;12.43;;;7.57;;
75689;SDS011;64303;53.118;9.044;2023-05-02T06:42:11;11.82;;;8.98;;
75689;SDS011;64303;53.118;9.044;2023-05-02T06:44:38;13.57;;;8.27;;
75689;SDS011;64303;53.118;9.044;2023-05-02T06:47:06;8.13;;;7.28;;
75689;SDS011;64303;53.118;9.044;2023-05-02T06:49:33;10.48;;;9.63;;
75689;SDS011;64303;53.118;9.044;2023-05-02T06:51:59;7.93;;;7.47;;
75689;SDS011;64303;53.118;9.044;2023-05-02T06:54:26;7.95;;;7.32;;
75689;SDS011;64303;53.118;9.044;2023-05-02T06:56:53;6.85;;;6.20;;
75689;SDS011;64303;53.118;9.044;2023-05-02T06:59:20;6.90;;;4.50;;
75689;SDS011;64303;53.118;9.044;2023-05-02T07:01:46;12.45;;;7.93;;
75689;SDS011;64303;53.118;9.044;2023-05-02T07:04:14;10.05;;;7.25;;
75689;SDS011;64303;53.118;9.044;2023-05-02T07:06:41;8.30;;;7.60;;
75689;SDS011;64303;53.118;9.044;2023-05-02T07:09:07;8.15;;;6.38;;
75689;SDS011;64303;53.118;9.044;2023-05-02T07:11:34;8.52;;;7.22;;
75689;SDS011;64303;53.118;9.044;2023-05-02T07:14:01;11.05;;;6.65;;
75689;SDS011;64303;53.118;9.044;2023-05-02T07:16:27;8.50;;;7.70;;
75689;SDS011;64303;53.118;9.044;2023-05-02T07:18:54;9.88;;;8.60;;
75689;SDS011;64303;53.118;9.044;2023-05-02T07:21:22;10.77;;;9.02;;
75689;SDS011;64303;53.118;9.044;2023-05-02T07:26:15;8.27;;;7.40;;
75689;SDS011;64303;53.118;9.044;2023-05-02T07:28:43;8.95;;;7.25;;
75689;SDS011;64303;53.118;9.044;2023-05-02T07:31:10;10.18;;;5.40;;
75689;SDS011;64303;53.118;9.044;2023-05-02T07:33:36;6.15;;;4.38;;
75689;SDS011;64303;53.118;9.044;2023-05-02T07:36:03;8.70;;;7.95;;
75689;SDS011;64303;53.118;9.044;2023-05-02T07:38:31;10.73;;;6.97;;
75689;SDS011;64303;53.118;9.044;2023-05-02T07:40:59;7.55;;;6.82;;
75689;SDS011;64303;53.118;9.044;2023-05-02T07:43:26;8.18;;;6.35;;
75689;SDS011;64303;53.118;9.044;2023-05-02T07:45:53;9.23;;;8.32;;
75689;SDS011;64303;53.118;9.044;2023-05-02T07:48:20;9.05;;;6.88;;
75689;SDS011;64303;53.118;9.044;2023-05-02T07:50:47;11.60;;;10.50;;
75689;SDS011;64303;53.118;9.044;2023-05-02T07:53:13;7.75;;;7.05;;
75689;SDS011;64303;53.118;9.044;2023-05-02T07:55:41;8.38;;;7.70;;
75689;SDS011;64303;53.118;9.044;2023-05-02T07:58:08;7.03;;;6.32;;
75689;SDS011;64303;53.118;9.044;2023-05-02T08:00:35;8.35;;;6.45;;
75689;SDS011;64303;53.118;9.044;2023-05-02T08:03:02;12.00;;;6.90;;
75689;SDS011;64303;53.118;9.044;2023-05-02T08:05:29;7.50;;;6.30;;
75689;SDS011;64303;53.118;9.044;2023-05-02T08:07:55;8.45;;;7.63;;
75689;SDS011;64303;53.118;9.044;2023-05-02T08:10:22;10.27;;;7.55;;
75689;SDS011;64303;53.118;9.044;2023-05-02T08:12:50;6.55;;;5.90;;
75689;SDS011;64303;53.118;9.044;2023-05-02T08:15:17;6.70;;;6.00;;
75689;SDS011;64303;53.118;9.044;2023-05-02T08:17:43;11.65;;;8.45;;
75689;SDS011;64303;53.118;9.044;2023-05-02T08:20:10;8.27;;;6.50;;
75689;SDS011;64303;53.118;9.044;2023-05-02T08:22:37;7.30;;;5.85;;
75689;SDS011;64303;53.118;9.044;2023-05-02T08:25:04;14.35;;;8.02;;
75689;SDS011;64303;53.118;9.044;2023-05-02T08:27:31;7.65;;;7.10;;
75689;SDS011;64303;53.118;9.044;2023-05-02T08:30:00;7.28;;;5.80;;
75689;SDS011;64303;53.118;9.044;2023-05-02T08:34:54;9.20;;;7.47;;
75689;SDS011;64303;53.118;9.044;2023-05-02T08:37:21;9.32;;;6.25;;
75689;SDS011;64303;53.118;9.044;2023-05-02T08:39:48;9.65;;;5.50;;
75689;SDS011;64303;53.118;9.044;2023-05-02T08:42:15;8.10;;;6.40;;
75689;SDS011;64303;53.118;9.044;2023-05-02T08:44:41;9.10;;;6.15;;
75689;SDS011;64303;53.118;9.044;2023-05-02T08:47:10;6.70;;;5.65;;
75689;SDS011;64303;53.118;9.044;2023-05-02T08:49:39;6.68;;;6.05;;
75689;SDS011;64303;53.118;9.044;2023-05-02T08:52:06;8.75;;;7.13;;
75689;SDS011;64303;53.118;9.044;2023-05-02T08:54:36;6.57;;;5.97;;
75689;SDS011;64303;53.118;9.044;2023-05-02T08:57:03;8.98;;;8.10;;
75689;SDS011;64303;53.118;9.044;2023-05-02T08:59:30;7.97;;;7.40;;
75689;SDS011;64303;53.118;9.044;2023-05-02T09:01:58;7.18;;;6.53;;
75689;SDS011;64303;53.118;9.044;2023-05-02T09:04:29;6.10;;;5.60;;
75689;SDS011;64303;53.118;9.044;2023-05-02T09:06:57;5.97;;;5.47;;
75689;SDS011;64303;53.118;9.044;2023-05-02T09:09:23;5.90;;;5.40;;
75689;SDS011;64303;53.118;9.044;2023-05-02T09:11:50;5.50;;;3.15;;
75689;SDS011;64303;53.118;9.044;2023-05-02T09:14:17;7.55;;;6.93;;
75689;SDS011;64303;53.118;9.044;2023-05-02T09:16:44;7.68;;;7.05;;
75689;SDS011;64303;53.118;9.044;2023-05-02T09:19:10;5.82;;;5.32;;
75689;SDS011;64303;53.118;9.044;2023-05-02T09:21:50;7.50;;;6.93;;
75689;SDS011;64303;53.118;9.044;2023-05-02T09:24:18;6.47;;;6.07;;
75689;SDS011;64303;53.118;9.044;2023-05-02T09:26:55;6.25;;;5.85;;
75689;SDS011;64303;53.118;9.044;2023-05-02T09:29:22;5.47;;;5.07;;
75689;SDS011;64303;53.118;9.044;2023-05-02T09:31:49;5.88;;;5.13;;
75689;SDS011;64303;53.118;9.044;2023-05-02T09:34:16;6.70;;;5.75;;
75689;SDS011;64303;53.118;9.044;2023-05-02T09:36:44;6.38;;;5.97;;
75689;SDS011;64303;53.118;9.044;2023-05-02T09:39:13;7.20;;;6.70;;
75689;SDS011;64303;53.118;9.044;2023-05-02T09:41:40;5.93;;;5.32;;
75689;SDS011;64303;53.118;9.044;2023-05-02T09:44:08;5.78;;;5.38;;
75689;SDS011;64303;53.118;9.044;2023-05-02T09:46:38;5.38;;;4.80;;
75689;SDS011;64303;53.118;9.044;2023-05-02T09:49:05;6.85;;;6.25;;
75689;SDS011;64303;53.118;9.044;2023-05-02T09:51:32;6.80;;;6.30;;
75689;SDS011;64303;53.118;9.044;2023-05-02T09:53:59;6.05;;;5.60;;
75689;SDS011;64303;53.118;9.044;2023-05-02T09:56:27;6.40;;;5.90;;
75689;SDS011;64303;53.118;9.044;2023-05-02T10:01:35;6.28;;;5.65;;
75689;SDS011;64303;53.118;9.044;2023-05-02T10:04:02;5.38;;;4.97;;
75689;SDS011;64303;53.118;9.044;2023-05-02T10:06:29;8.85;;;8.30;;
75689;SDS011;64303;53.118;9.044;2023-05-02T10:08:58;6.00;;;5.47;;
75689;SDS011;64303;53.118;9.044;2023-05-02T10:11:25;7.22;;;3.88;;
75689;SDS011;64303;53.118;9.044;2023-05-02T10:13:53;5.72;;;5.18;;
75689;SDS011;64303;53.118;9.044;2023-05-02T10:16:21;6.13;;;5.63;;
75689;SDS011;64303;53.118;9.044;2023-05-02T10:18:55;4.85;;;4.13;;
75689;SDS011;64303;53.118;9.044;2023-05-02T10:21:25;4.13;;;3.83;;
75689;SDS011;64303;53.118;9.044;2023-05-02T10:23:52;4.45;;;4.05;;
75689;SDS011;64303;53.118;9.044;2023-05-02T10:26:19;5.72;;;5.18;;
75689;SDS011;64303;53.118;9.044;2023-05-02T10:28:49;6.50;;;5.72;;
75689;SDS011;64303;53.118;9.044;2023-05-02T10:31:17;7.97;;;7.43;;
75689;SDS011;64303;53.118;9.044;2023-05-02T10:33:44;6.43;;;5.68;;
75689;SDS011;64303;53.118;9.044;2023-05-02T10:36:12;5.78;;;5.38;;
75689;SDS011;64303;53.118;9.044;2023-05-02T10:38:39;6.43;;;5.75;;
75689;SDS011;64303;53.118;9.044;2023-05-02T10:41:07;5.72;;;4.68;;
75689;SDS011;64303;53.118;9.044;2023-05-02T10:43:39;5.90;;;5.28;;
75689;SDS011;64303;53.118;9.044;2023-05-02T10:46:30;5.95;;;5.47;;
75689;SDS011;64303;53.118;9.044;2023-05-02T10:49:01;5.88;;;5.47;;
75689;SDS011;64303;53.118;9.044;2023-05-02T10:51:29;6.32;;;5.85;;
75689;SDS011;64303;53.118;9.044;2023-05-02T10:57:00;6.38;;;5.97;;
75689;SDS011;64303;53.118;9.044;2023-05-02T10:59:29;6.78;;;4.75;;
75689;SDS011;64303;53.118;9.044;2023-05-02T11:01:58;6.20;;;5.70;;
75689;SDS011;64303;53.118;9.044;2023-05-02T11:04:25;5.60;;;5.30;;
75689;SDS011;64303;53.118;9.044;2023-05-02T11:07:25;5.40;;;4.85;;
75689;SDS011;64303;53.118;9.044;2023-05-02T11:09:51;6.03;;;5.63;;
75689;SDS011;64303;53.118;9.044;2023-05-02T11:15:08;7.88;;;5.78;;
75689;SDS011;64303;53.118;9.044;2023-05-02T11:20:28;5.45;;;5.13;;
75689;SDS011;64303;53.118;9.044;2023-05-02T11:22:56;7.18;;;6.68;;
75689;SDS011;64303;53.118;9.044;2023-05-02T11:25:27;6.63;;;6.03;;
75689;SDS011;64303;53.118;9.044;2023-05-02T11:27:55;4.88;;;4.57;;
75689;SDS011;64303;53.118;9.044;2023-05-02T11:30:35;5.72;;;5.22;;
75689;SDS011;64303;53.118;9.044;2023-05-02T11:33:17;4.25;;;3.95;;
75689;SDS011;64303;53.118;9.044;2023-05-02T11:35:44;6.97;;;5.07;;
75689;SDS011;64303;53.118;9.044;2023-05-02T11:38:17;6.47;;;5.97;;
75689;SDS011;64303;53.118;9.044;2023-05-02T11:40:52;5.35;;;5.03;;
75689;SDS011;64303;53.118;9.044;2023-05-02T11:43:22;5.43;;;4.97;;
75689;SDS011;64303;53.118;9.044;2023-05-02T11:45:50;4.90;;;4.55;;
75689;SDS011;64303;53.118;9.044;2023-05-02T11:48:19;7.68;;;7.05;;
75689;SDS011;64303;53.118;9.044;2023-05-02T11:50:47;7.60;;;5.63;;
75689;SDS011;64303;53.118;9.044;2023-05-02T11:53:16;6.88;;;6.47;;
75689;SDS011;64303;53.118;9.044;2023-05-02T11:55:44;5.88;;;5.47;;
75689;SDS011;64303;53.118;9.044;2023-05-02T11:58:12;4.03;;;3.63;;
75689;SDS011;64303;53.118;9.044;2023-05-02T12:00:40;6.22;;;5.72;;
75689;SDS011;64303;53.118;9.044;2023-05-02T12:03:06;6.15;;;5.60;;
75689;SDS011;64303;53.118;9.044;2023-05-02T12:05:34;5.07;;;4.72;;
75689;SDS011;64303;53.118;9.044;2023-05-02T12:08:01;6.80;;;6.30;;
75689;SDS011;64303;53.118;9.044;2023-05-02T12:10:34;7.20;;;6.57;;
75689;SDS011;64303;53.118;9.044;2023-05-02T12:13:03;5.95;;;5.28;;
75689;SDS011;64303;53.118;9.044;2023-05-02T12:15:30;5.72;;;5.22;;
75689;SDS011;64303;53.118;9.044;2023-05-02T12:17:56;5.75;;;5.30;;
75689;SDS011;64303;53.118;9.044;2023-05-02T12:20:23;7.53;;;6.88;;
75689;SDS011;64303;53.118;9.044;2023-05-02T12:22:52;6.15;;;5.55;;
75689;SDS011;64303;53.118;9.044;2023-05-02T12:25:18;9.00;;;6.75;;
75689;SDS011;64303;53.118;9.044;2023-05-02T12:27:57;7.10;;;6.60;;
75689;SDS011;64303;53.118;9.044;2023-05-02T12:30:24;8.38;;;7.00;;
75689;SDS011;64303;53.118;9.044;2023-05-02T12:32:54;6.72;;;6.10;;
75689;SDS011;64303;53.118;9.044;2023-05-02T12:35:21;6.50;;;6.00;;
75689;SDS011;64303;53.118;9.044;2023-05-02T12:37:48;7.25;;;6.57;;
75689;SDS011;64303;53.118;9.044;2023-05-02T12:40:16;8.45;;;7.85;;
75689;SDS011;64303;53.118;9.044;2023-05-02T12:42:46;7.03;;;4.43;;
75689;SDS011;64303;53.118;9.044;2023-05-02T12:45:23;5.45;;;4.97;;
75689;SDS011;64303;53.118;9.044;2023-05-02T12:47:53;7.82;;;7.13;;
75689;SDS011;64303;53.118;9.044;2023-05-02T12:50:20;6.97;;;6.47;;
75689;SDS011;64303;53.118;9.044;2023-05-02T12:53:01;6.00;;;5.45;;
75689;SDS011;64303;53.118;9.044;2023-05-02T12:55:29;6.00;;;5.07;;
75689;SDS011;64303;53.118;9.044;2023-05-02T12:58:00;6.85;;;4.53;;
75689;SDS011;64303;53.118;9.044;2023-05-02T13:00:27;5.30;;;4.63;;
75689;SDS011;64303;53.118;9.044;2023-05-02T13:02:54;5.32;;;4.55;;
75689;SDS011;64303;53.118;9.044;2023-05-02T13:05:21;6.57;;;5.80;;
75689;SDS011;64303;53.118;9.044;2023-05-02T13:07:48;5.18;;;4.78;;
75689;SDS011;64303;53.118;9.044;2023-05-02T13:10:14;5.70;;;5.30;;
75689;SDS011;64303;53.118;9.044;2023-05-02T13:12:43;5.05;;;4.65;;
75689;SDS011;64303;53.118;9.044;2023-05-02T13:15:11;5.22;;;4.90;;
75689;SDS011;64303;53.118;9.044;2023-05-02T13:17:38;3.80;;;3.45;;
75689;SDS011;64303;53.118;9.044;2023-05-02T13:20:05;5.90;;;5.50;;
75689;SDS011;64303;53.118;9.044;2023-05-02T13:22:33;8.07;;;5.85;;
75689;SDS011;64303;53.118;9.044;2023-05-02T13:25:00;6.88;;;4.50;;
75689;SDS011;64303;53.118;9.044;2023-05-02T13:27:27;7.45;;;6.53;;
75689;SDS011;64303;53.118;9.044;2023-05-02T13:29:55;5.57;;;5.00;;
75689;SDS011;64303;53.118;9.044;2023-05-02T13:32:22;8.00;;;6.50;;
75689;SDS011;64303;53.118;9.044;2023-05-02T13:34:49;6.07;;;5.65;;
75689;SDS011;64303;53.118;9.044;2023-05-02T13:37:15;5.55;;;4.60;;
75689;SDS011;64303;53.118;9.044;2023-05-02T13:39:42;6.15;;;5.75;;
75689;SDS011;64303;53.118;9.044;2023-05-02T13:42:09;4.68;;;4.38;;
75689;SDS011;64303;53.118;9.044;2023-05-02T13:44:35;6.13;;;5.55;;
75689;SDS011;64303;53.118;9.044;2023-05-02T13:47:03;5.20;;;4.15;;
75689;SDS011;64303;53.118;9.044;2023-05-02T13:51:56;3.05;;;2.60;;
75689;SDS011;64303;53.118;9.044;2023-05-02T13:54:23;5.10;;;4.80;;
75689;SDS011;64303;53.118;9.044;2023-05-02T13:56:50;6.20;;;5.80;;
75689;SDS011;64303;53.118;9.044;2023-05-02T13:59:17;6.13;;;5.53;;
75689;SDS011;64303;53.118;9.044;2023-05-02T14:01:43;5.30;;;5.00;;
75689;SDS011;64303;53.118;9.044;2023-05-02T14:04:11;4.85;;;4.40;;
75689;SDS011;64303;53.118;9.044;2023-05-02T14:06:38;6.32;;;5.90;;
75689;SDS011;64303;53.118;9.044;2023-05-02T14:09:05;7.07;;;4.70;;
75689;SDS011;64303;53.118;9.044;2023-05-02T14:11:32;7.05;;;4.03;;
75689;SDS011;64303;53.118;9.044;2023-05-02T14:13:59;5.65;;;5.25;;
75689;SDS011;64303;53.118;9.044;2023-05-02T14:16:25;5.78;;;5.18;;
75689;SDS011;64303;53.118;9.044;2023-05-02T14:18:52;6.30;;;5.45;;
75689;SDS011;64303;53.118;9.044;2023-05-02T14:21:20;6.70;;;5.45;;
75689;SDS011;64303;53.118;9.044;2023-05-02T14:23:47;6.40;;;6.00;;
75689;SDS011;64303;53.118;9.044;2023-05-02T14:26:16;5.38;;;4.97;;
75689;SDS011;64303;53.118;9.044;2023-05-02T14:28:44;5.57;;;5.07;;
75689;SDS011;64303;53.118;9.044;2023-05-02T14:31:11;5.50;;;4.93;;
75689;SDS011;64303;53.118;9.044;2023-05-02T14:33:38;8.20;;;6.07;;
75689;SDS011;64303;53.118;9.044;2023-05-02T14:36:05;4.55;;;2.67;;
75689;SDS011;64303;53.118;9.044;2023-05-02T14:38:33;7.30;;;5.93;;
75689;SDS011;64303;53.118;9.044;2023-05-02T14:41:00;5.40;;;5.00;;
75689;SDS011;64303;53.118;9.044;2023-05-02T14:48:21;6.95;;;6.45;;
75689;SDS011;64303;53.118;9.044;2023-05-02T14:50:47;6.18;;;5.68;;
75689;SDS011;64303;53.118;9.044;2023-05-02T14:53:14;6.50;;;5.90;;
75689;SDS011;64303;53.118;9.044;2023-05-02T14:55:42;5.32;;;4.90;;
75689;SDS011;64303;53.118;9.044;2023-05-02T14:58:09;5.15;;;4.72;;
75689;SDS011;64303;53.118;9.044;2023-05-02T15:00:36;6.45;;;6.00;;
75689;SDS011;64303;53.118;9.044;2023-05-02T15:03:03;6.25;;;5.65;;
75689;SDS011;64303;53.118;9.044;2023-05-02T15:05:30;5.35;;;4.95;;
75689;SDS011;64303;53.118;9.044;2023-05-02T15:07:56;6.13;;;5.15;;
75689;SDS011;64303;53.118;9.044;2023-05-02T15:10:23;6.57;;;2.67;;
75689;SDS011;64303;53.118;9.044;2023-05-02T15:12:51;5.13;;;4.65;;
75689;SDS011;64303;53.118;9.044;2023-05-02T15:15:18;5.80;;;5.30;;
75689;SDS011;64303;53.118;9.044;2023-05-02T15:17:49;8.55;;;5.78;;
75689;SDS011;64303;53.118;9.044;2023-05-02T15:20:16;4.95;;;4.65;;
75689;SDS011;64303;53.118;9.044;2023-05-02T15:22:43;6.82;;;6.25;;
75689;SDS011;64303;53.118;9.044;2023-05-02T15:25:09;4.00;;;3.65;;
75689;SDS011;64303;53.118;9.044;2023-05-02T15:27:36;5.25;;;4.65;;